Time;durP1;ratioP1;P1;durP2;ratioP2;P2;SDS_P1;SDS_P2;PMS_P1;PMS_P2;Temp;Humidity;BMP_temperature;BMP_pressure;BME280_temperature;BME280_humidity;BME280_pressure;Samples;Min_cycle;Max_cycle;Signal;HPM_P1;HPM_P2
2023/08/05 00:03:21;;;;;;;7.63;3.60;;;;;;;17.27;100.00;100671.53;8290180;28;20482;-60
2023/08/05 00:07:21;;;;;;;5.82;3.83;;;;;;;17.18;100.00;100667.16;8290750;28;20046;-60
2023/08/05 00:11:22;;;;;;;6.82;3.88;;;;;;;17.15;100.00;100668.38;8289588;28;20060;-60
2023/08/05 00:15:22;;;;;;;5.20;3.50;;;;;;;16.98;100.00;100668.59;8286018;28;20466;-61
2023/08/05 00:19:23;;;;;;;5.05;3.45;;;;;;;17.07;100.00;100662.06;8289699;28;20033;-60
2023/08/05 00:23:23;;;;;;;6.05;3.47;;;;;;;17.04;100.00;100659.69;8289957;28;20479;-61
2023/08/05 00:27:24;;;;;;;6.43;4.00;;;;;;;17.06;100.00;100660.38;8289951;28;20038;-61
2023/08/05 00:31:24;;;;;;;7.20;3.75;;;;;;;17.01;100.00;100658.19;8289245;28;20068;-60
2023/08/05 00:35:25;;;;;;;7.45;4.22;;;;;;;16.91;100.00;100653.97;8284048;28;20076;-60
2023/08/05 00:39:25;;;;;;;8.23;3.70;;;;;;;16.93;100.00;100649.19;8288570;28;20048;-60
2023/08/05 00:43:26;;;;;;;7.28;4.15;;;;;;;16.90;100.00;100630.41;8289559;28;20041;-60
2023/08/05 00:47:26;;;;;;;8.80;3.55;;;;;;;16.78;100.00;100634.56;8289538;28;20471;-61
2023/08/05 00:51:27;;;;;;;4.72;3.40;;;;;;;16.62;100.00;100627.28;8284966;28;20124;-60
2023/08/05 00:55:27;;;;;;;8.25;3.47;;;;;;;16.60;100.00;100628.50;8289041;28;20048;-60
2023/08/05 00:59:28;;;;;;;4.00;3.17;;;;;;;16.68;100.00;100631.22;8287877;28;20116;-60
2023/08/05 01:03:28;;;;;;;7.32;3.50;;;;;;;16.60;100.00;100623.03;8287673;28;20049;-61
2023/08/05 01:07:32;;;;;;;6.82;3.40;;;;;;;16.71;100.00;100623.50;8288263;28;20045;-60
2023/08/05 01:11:33;;;;;;;12.52;3.33;;;;;;;16.71;100.00;100619.94;8293119;28;20136;-60
2023/08/05 01:15:33;;;;;;;6.97;3.30;;;;;;;16.61;100.00;100624.72;8294914;28;20061;-60
2023/08/05 01:19:35;;;;;;;8.40;3.10;;;;;;;16.51;100.00;100629.56;8294608;28;20088;-60
2023/08/05 01:23:48;;;;;;;7.38;3.33;;;;;;;16.52;100.00;100628.50;8294293;28;20479;-60
2023/08/05 01:27:50;;;;;;;12.67;3.23;;;;;;;16.52;100.00;100631.25;8292036;28;20042;-59
2023/08/05 01:31:51;;;;;;;6.22;3.10;;;;;;;16.47;100.00;100639.13;8293791;28;20084;-59
2023/08/05 01:35:53;;;;;;;4.93;2.90;;;;;;;16.38;100.00;100623.78;8294539;28;20037;-59
2023/08/05 01:39:53;;;;;;;7.47;3.17;;;;;;;16.18;100.00;100627.91;8293839;28;20095;-59
2023/08/05 01:43:54;;;;;;;4.53;2.47;;;;;;;16.09;100.00;100631.66;8289628;28;20068;-59
2023/08/05 01:47:54;;;;;;;6.15;3.25;;;;;;;16.07;100.00;100636.47;8294087;28;20101;-59
2023/08/05 01:51:54;;;;;;;5.78;3.10;;;;;;;15.99;100.00;100623.69;8291572;28;20564;-59
2023/08/05 01:55:55;;;;;;;8.63;2.95;;;;;;;15.91;100.00;100614.66;8291799;28;20419;-59
2023/08/05 01:59:55;;;;;;;4.70;3.08;;;;;;;15.87;100.00;100614.16;8291709;28;20045;-59
2023/08/05 02:03:56;;;;;;;8.32;3.75;;;;;;;15.66;100.00;100619.28;8288249;28;20132;-59
2023/08/05 02:07:56;;;;;;;5.45;3.47;;;;;;;15.71;100.00;100615.00;8292317;28;20041;-59
2023/08/05 02:11:57;;;;;;;5.55;3.10;;;;;;;15.38;100.00;100616.03;8292409;28;20064;-59
2023/08/05 02:15:57;;;;;;;5.25;2.92;;;;;;;15.26;100.00;100603.75;8282863;28;20405;-59
2023/08/05 02:19:58;;;;;;;6.60;3.15;;;;;;;15.20;100.00;100604.41;8303231;28;20092;-59
2023/08/05 02:23:58;;;;;;;9.88;3.92;;;;;;;15.36;100.00;100612.59;8289895;28;20042;-59
2023/08/05 02:27:59;;;;;;;6.45;3.03;;;;;;;15.37;100.00;100606.16;8289568;28;20297;-59
2023/08/05 02:31:59;;;;;;;5.90;3.33;;;;;;;15.23;100.00;100620.41;8291658;28;20033;-59
2023/08/05 02:36:01;;;;;;;6.40;3.00;;;;;;;15.05;100.00;100621.56;8292063;28;20054;-61
2023/08/05 02:40:03;;;;;;;9.07;3.58;;;;;;;15.06;100.00;100610.50;8292091;28;20176;-61
2023/08/05 02:44:04;;;;;;;8.23;4.05;;;;;;;15.12;100.00;100607.09;8292223;28;20042;-60
2023/08/05 02:48:04;;;;;;;7.20;3.28;;;;;;;15.03;100.00;100615.41;8292226;28;20038;-61
2023/08/05 02:52:05;;;;;;;10.98;3.50;;;;;;;14.86;100.00;100611.81;8291503;28;20521;-61
2023/08/05 02:56:05;;;;;;;8.13;3.63;;;;;;;15.08;100.00;100604.88;8291781;28;20226;-60
2023/08/05 03:00:06;;;;;;;8.80;3.85;;;;;;;15.06;100.00;100609.63;8290945;28;20038;-61
2023/08/05 03:04:07;;;;;;;9.48;4.13;;;;;;;15.18;100.00;100609.16;8290073;28;20042;-61
2023/08/05 03:08:07;;;;;;;10.68;4.20;;;;;;;15.27;100.00;100605.44;8290588;28;20141;-60
2023/08/05 03:12:08;;;;;;;6.90;4.15;;;;;;;15.12;100.00;100601.66;8290466;28;20038;-62
2023/08/05 03:16:10;;;;;;;7.50;4.30;;;;;;;14.83;100.00;100594.97;8290517;28;20069;-60
2023/08/05 03:20:30;;;;;;;7.78;5.18;;;;;;;14.86;100.00;100584.59;8288928;28;20491;-60
2023/08/05 03:24:38;;;;;;;9.35;5.03;;;;;;;15.15;100.00;100584.97;8285712;28;20041;-60
2023/08/05 03:28:39;;;;;;;7.80;4.72;;;;;;;15.03;100.00;100582.75;8290444;28;20037;-60
2023/08/05 03:32:42;;;;;;;7.90;4.22;;;;;;;14.73;100.00;100584.19;8286819;28;20125;-60
2023/08/05 03:36:42;;;;;;;12.15;4.57;;;;;;;14.62;100.00;100573.63;8291017;28;20116;-60
2023/08/05 03:40:43;;;;;;;8.00;4.45;;;;;;;14.68;100.00;100575.69;8291004;28;20096;-61
2023/08/05 03:44:43;;;;;;;6.63;4.57;;;;;;;15.00;100.00;100562.16;8290361;28;20532;-58
2023/08/05 03:48:44;;;;;;;7.20;4.63;;;;;;;15.15;100.00;100568.66;8289233;28;20076;-58
2023/08/05 03:52:45;;;;;;;9.50;4.78;;;;;;;14.94;100.00;100565.53;8289822;28;20550;-58
2023/08/05 03:56:45;;;;;;;8.07;4.95;;;;;;;14.91;100.00;100571.31;8290296;28;20415;-60
2023/08/05 04:00:46;;;;;;;8.57;4.95;;;;;;;14.74;100.00;100569.59;8290341;28;20548;-60
2023/08/05 04:04:47;;;;;;;8.13;5.47;;;;;;;14.51;100.00;100576.66;8290524;28;20132;-60
2023/08/05 04:08:50;;;;;;;10.30;4.63;;;;;;;14.24;100.00;100585.03;8289754;28;20121;-60
2023/08/05 04:12:51;;;;;;;9.18;4.40;;;;;;;14.40;100.00;100565.22;8290677;28;20037;-60
2023/08/05 04:16:54;;;;;;;7.00;4.38;;;;;;;14.39;100.00;100563.53;8290606;28;20121;-60
2023/08/05 04:20:57;;;;;;;13.52;5.75;;;;;;;14.74;100.00;100564.16;8286496;28;20034;-60
2023/08/05 04:24:57;;;;;;;7.85;5.60;;;;;;;14.91;100.00;100559.59;8289228;28;20041;-61
2023/08/05 04:28:58;;;;;;;9.82;6.40;;;;;;;14.92;100.00;100566.75;8288952;28;20052;-61
2023/08/05 04:32:58;;;;;;;12.77;6.80;;;;;;;14.98;100.00;100550.56;8289653;28;20042;-60
2023/08/05 04:37:18;;;;;;;6.70;4.97;;;;;;;15.06;100.00;100547.88;8289681;28;20046;-60
2023/08/05 04:41:18;;;;;;;11.45;5.00;;;;;;;15.20;100.00;100539.03;8289484;28;20041;-60
2023/08/05 04:45:19;;;;;;;8.07;4.30;;;;;;;15.35;100.00;100537.34;8293789;28;20072;-60
2023/08/05 04:49:19;;;;;;;9.95;4.70;;;;;;;15.49;100.00;100523.03;8296482;28;20038;-60
2023/08/05 04:53:19;;;;;;;5.47;3.78;;;;;;;15.46;100.00;100515.22;8296448;28;20046;-61
2023/08/05 04:57:20;;;;;;;7.15;4.50;;;;;;;15.48;100.00;100518.63;8295925;28;20037;-58
2023/08/05 05:01:20;;;;;;;6.85;4.80;;;;;;;15.58;100.00;100521.16;8294941;28;20041;-59
2023/08/05 05:05:21;;;;;;;8.68;4.65;;;;;;;15.64;100.00;100518.59;8295986;28;20041;-58
2023/08/05 05:09:21;;;;;;;7.07;5.18;;;;;;;15.77;100.00;100522.66;8295814;28;20076;-59
2023/08/05 05:13:22;;;;;;;13.70;5.43;;;;;;;15.89;100.00;100513.09;8295876;28;20034;-59
2023/08/05 05:17:22;;;;;;;10.02;5.80;;;;;;;16.07;100.00;100511.00;8295323;28;20109;-59
2023/08/05 05:21:23;;;;;;;9.25;5.30;;;;;;;15.80;100.00;100511.41;8295059;28;20411;-58
2023/08/05 05:25:23;;;;;;;13.27;5.63;;;;;;;15.60;100.00;100530.88;8295596;28;20124;-59
2023/08/05 05:29:24;;;;;;;7.85;5.88;;;;;;;15.46;100.00;100526.13;8295346;28;20503;-58
2023/08/05 05:33:25;;;;;;;10.52;6.28;;;;;;;15.47;100.00;100529.69;8294744;28;20072;-58
2023/08/05 05:37:25;;;;;;;12.27;7.05;;;;;;;15.54;100.00;100527.97;8293768;28;20050;-59
2023/08/05 05:41:26;;;;;;;12.32;7.43;;;;;;;15.63;100.00;100530.53;8294640;28;20494;-59
2023/08/05 05:45:28;;;;;;;10.27;7.10;;;;;;;15.63;100.00;100516.91;8294573;28;20494;-59
2023/08/05 05:49:28;;;;;;;12.02;7.15;;;;;;;15.95;100.00;100520.59;8294089;28;20033;-59
2023/08/05 05:53:28;;;;;;;13.20;7.10;;;;;;;16.02;100.00;100518.84;8294549;28;20041;-59
2023/08/05 05:57:29;;;;;;;14.57;7.82;;;;;;;16.16;100.00;100537.22;8294457;28;20121;-59
2023/08/05 06:01:30;;;;;;;11.13;7.28;;;;;;;16.33;100.00;100527.94;8293634;28;20522;-59
2023/08/05 06:05:30;;;;;;;14.77;7.35;;;;;;;16.23;100.00;100530.03;8294504;28;20041;-58
2023/08/05 06:09:31;;;;;;;10.43;6.75;;;;;;;16.43;100.00;100523.09;8293241;28;20033;-59
2023/08/05 06:13:32;;;;;;;13.07;7.20;;;;;;;16.85;100.00;100526.31;8292834;28;20037;-59
2023/08/05 06:17:32;;;;;;;8.63;6.53;;;;;;;17.33;100.00;100528.69;8293444;28;20034;-61
2023/08/05 06:21:32;;;;;;;12.90;7.18;;;;;;;17.60;100.00;100530.88;8293176;28;20622;-59
2023/08/05 06:25:33;;;;;;;14.20;7.40;;;;;;;17.82;100.00;100538.19;8293693;28;20068;-59
2023/08/05 06:29:34;;;;;;;9.65;6.82;;;;;;;17.84;100.00;100533.34;8292735;28;20042;-59
2023/08/05 06:33:34;;;;;;;15.18;7.15;;;;;;;17.41;100.00;100539.53;8291953;28;20037;-59
2023/08/05 06:37:34;;;;;;;13.10;8.40;;;;;;;17.33;100.00;100534.16;8292478;28;20053;-59
2023/08/05 06:41:35;;;;;;;12.10;8.15;;;;;;;17.26;100.00;100533.19;8291700;28;20570;-61
2023/08/05 06:45:35;;;;;;;11.90;8.27;;;;;;;17.37;100.00;100524.56;8288845;28;20033;-58
2023/08/05 06:49:36;;;;;;;14.90;9.18;;;;;;;17.29;100.00;100521.88;8289114;28;20550;-59
2023/08/05 06:53:39;;;;;;;14.23;7.93;;;;;;;17.40;100.00;100524.19;8290533;28;20099;-59
2023/08/05 06:57:39;;;;;;;13.63;9.50;;;;;;;17.62;100.00;100506.09;8291637;28;20100;-59
2023/08/05 07:01:40;;;;;;;15.65;9.90;;;;;;;18.31;100.00;100509.22;8291325;28;20038;-59
2023/08/05 07:05:40;;;;;;;14.50;8.85;;;;;;;18.92;100.00;100477.72;8291558;28;20087;-59
2023/08/05 07:09:41;;;;;;;17.80;8.68;;;;;;;18.87;99.88;100481.06;8290422;28;20125;-59
2023/08/05 07:13:41;;;;;;;14.32;8.30;;;;;;;19.47;100.00;100491.56;8291782;28;20049;-62
2023/08/05 07:17:42;;;;;;;11.25;7.70;;;;;;;19.63;97.38;100479.44;8281615;28;20519;-58
2023/08/05 07:21:42;;;;;;;14.77;8.77;;;;;;;19.61;97.90;100479.63;8291456;28;20065;-57
2023/08/05 07:25:43;;;;;;;15.30;9.15;;;;;;;20.04;94.43;100488.59;8291348;28;20506;-57
2023/08/05 07:29:43;;;;;;;10.38;7.40;;;;;;;20.34;92.16;100473.59;8290314;28;20049;-59
2023/08/05 07:33:46;;;;;;;10.30;7.45;;;;;;;20.54;89.55;100480.00;8285554;28;20121;-58
2023/08/05 07:37:47;;;;;;;10.82;6.45;;;;;;;20.50;89.06;100467.75;8285955;28;20046;-59
2023/08/05 07:41:49;;;;;;;8.65;6.20;;;;;;;20.86;86.82;100457.28;8290917;28;20037;-58
2023/08/05 07:45:50;;;;;;;11.18;6.85;;;;;;;20.89;86.41;100452.19;8290611;28;20033;-61
2023/08/05 07:49:51;;;;;;;7.55;5.47;;;;;;;21.01;85.92;100435.94;8287114;28;20041;-61
2023/08/05 07:53:53;;;;;;;8.02;5.82;;;;;;;21.10;83.73;100437.44;8290761;28;20503;-61
2023/08/05 07:57:54;;;;;;;7.35;4.43;;;;;;;21.31;83.56;100420.75;8290813;28;20476;-61
2023/08/05 08:01:55;;;;;;;4.47;3.85;;;;;;;21.46;80.62;100421.38;8290307;28;20042;-61
2023/08/05 08:05:55;;;;;;;5.72;2.90;;;;;;;21.66;78.32;100416.69;8288801;28;20042;-61
2023/08/05 08:09:56;;;;;;;3.58;2.78;;;;;;;21.83;77.77;100419.88;8283178;28;20061;-62
2023/08/05 08:13:56;;;;;;;4.32;2.63;;;;;;;22.28;73.09;100403.19;8290264;28;20100;-61
2023/08/05 08:17:57;;;;;;;3.20;1.73;;;;;;;22.03;70.82;100402.22;8287037;28;20439;-61
2023/08/05 08:21:57;;;;;;;2.10;1.70;;;;;;;21.98;72.33;100410.28;8295230;28;20042;-61
2023/08/05 08:25:58;;;;;;;2.08;1.60;;;;;;;22.15;71.96;100395.00;8296321;28;20117;-59
2023/08/05 08:29:59;;;;;;;4.13;1.80;;;;;;;22.37;70.13;100388.09;8296547;28;20038;-60
2023/08/05 08:34:00;;;;;;;2.97;1.58;;;;;;;22.33;68.16;100381.34;8296413;28;20041;-59
2023/08/05 08:38:00;;;;;;;2.70;1.90;;;;;;;22.43;70.76;100372.59;8293932;28;20034;-60
2023/08/05 08:42:01;;;;;;;2.35;1.30;;;;;;;22.99;71.42;100357.81;8296221;28;20038;-59
2023/08/05 08:46:02;;;;;;;2.40;1.83;;;;;;;22.47;70.89;100357.28;8296504;28;20121;-60
2023/08/05 08:50:03;;;;;;;2.33;1.83;;;;;;;22.53;71.13;100353.69;8295942;28;20045;-60
2023/08/05 08:54:04;;;;;;;3.50;2.05;;;;;;;22.78;72.21;100351.84;8295826;28;20044;-60
2023/08/05 08:58:05;;;;;;;2.65;1.77;;;;;;;23.01;70.09;100347.41;8294901;28;20040;-59
2023/08/05 09:02:12;;;;;;;2.75;1.98;;;;;;;23.12;68.79;100332.03;8295104;28;20042;-60
2023/08/05 09:06:13;;;;;;;4.40;1.90;;;;;;;23.12;70.48;100324.56;8292496;28;20040;-60
2023/08/05 09:10:14;;;;;;;2.50;1.55;;;;;;;23.25;69.70;100322.81;8295085;28;20045;-60
2023/08/05 09:14:16;;;;;;;2.10;1.30;;;;;;;23.54;67.42;100320.16;8295378;28;20042;-60
2023/08/05 09:18:16;;;;;;;1.70;1.60;;;;;;;23.14;70.36;100322.44;8294476;28;20030;-60
2023/08/05 09:22:16;;;;;;;1.75;1.20;;;;;;;22.77;67.58;100315.13;8293820;28;20049;-59
2023/08/05 09:26:32;;;;;;;1.77;1.50;;;;;;;22.99;69.88;100315.56;8294680;28;20041;-60
2023/08/05 09:30:33;;;;;;;1.35;0.80;;;;;;;23.13;62.92;100318.00;8290736;28;20504;-60
2023/08/05 09:34:37;;;;;;;1.23;1.02;;;;;;;23.56;63.78;100314.41;8294079;28;20403;-58
2023/08/05 09:38:39;;;;;;;1.33;1.23;;;;;;;23.51;65.46;100314.25;8290863;28;20038;-58
2023/08/05 09:42:41;;;;;;;1.45;1.02;;;;;;;23.97;62.37;100298.00;8294820;28;20046;-59
2023/08/05 09:46:41;;;;;;;2.17;1.40;;;;;;;23.77;62.27;100292.69;8288928;28;20068;-58
2023/08/05 09:50:43;;;;;;;1.08;0.98;;;;;;;23.38;63.78;100295.06;8294140;28;20042;-58
2023/08/05 09:54:52;;;;;;;1.10;0.98;;;;;;;23.77;63.26;100289.94;8294056;28;20045;-59
2023/08/05 09:58:53;;;;;;;3.78;1.23;;;;;;;23.56;64.76;100281.28;8290344;28;20038;-57
2023/08/05 10:02:54;;;;;;;1.38;1.20;;;;;;;23.81;62.49;100282.03;8293570;28;20069;-58
2023/08/05 10:06:55;;;;;;;1.67;1.00;;;;;;;24.14;60.87;100274.16;8293943;28;20125;-58
2023/08/05 10:10:56;;;;;;;1.83;0.95;;;;;;;24.91;60.68;100262.97;8292559;28;20046;-59
2023/08/05 10:14:59;;;;;;;1.70;1.00;;;;;;;26.07;59.12;100269.22;8292182;28;20046;-59
2023/08/05 10:18:59;;;;;;;2.55;0.80;;;;;;;27.11;55.87;100250.00;8289067;28;20069;-61
2023/08/05 10:23:03;;;;;;;1.25;0.80;;;;;;;26.30;55.97;100242.25;8293078;28;20495;-58
2023/08/05 10:27:10;;;;;;;2.17;1.00;;;;;;;26.58;56.90;100244.97;8293238;28;20597;-59
2023/08/05 10:31:28;;;;;;;4.03;0.80;;;;;;;27.99;53.13;100227.66;8292426;28;20034;-58
2023/08/05 10:35:45;;;;;;;2.70;0.60;;;;;;;28.83;51.45;100215.69;8290986;28;20447;-59
2023/08/05 10:39:45;;;;;;;1.65;0.75;;;;;;;27.59;51.82;100224.31;8289491;28;20120;-60
2023/08/05 10:43:47;;;;;;;2.10;0.88;;;;;;;25.56;56.96;100217.47;8292390;28;20096;-59
2023/08/05 10:47:48;;;;;;;1.58;0.60;;;;;;;24.64;59.49;100206.41;8297136;28;20056;-59
2023/08/05 10:51:50;;;;;;;37.03;13.23;;;;;;;24.55;60.55;100202.31;8293649;28;20050;-57
2023/08/05 10:55:55;;;;;;;2.08;0.85;;;;;;;24.79;60.75;100193.81;8292275;28;20117;-59
2023/08/05 10:59:58;;;;;;;1.15;0.80;;;;;;;24.85;58.83;100180.94;8293447;28;20042;-60
2023/08/05 11:03:59;;;;;;;1.15;0.80;;;;;;;24.83;59.52;100174.81;8289900;28;20044;-60
2023/08/05 11:08:00;;;;;;;1.20;0.70;;;;;;;24.99;59.96;100179.63;8293088;28;20034;-59
2023/08/05 11:12:01;;;;;;;1.00;0.90;;;;;;;24.74;60.73;100179.84;8292979;28;20091;-59
2023/08/05 11:16:09;;;;;;;1.70;1.00;;;;;;;24.32;61.42;100169.97;8292902;28;20041;-59
2023/08/05 11:20:10;;;;;;;1.67;0.95;;;;;;;24.29;59.82;100153.00;8292723;28;20038;-60
2023/08/05 11:24:18;;;;;;;2.35;0.75;;;;;;;26.01;57.45;100149.13;8288865;28;20044;-59
2023/08/05 11:28:20;;;;;;;2.00;0.82;;;;;;;27.73;53.07;100132.00;8284828;28;20037;-59
2023/08/05 11:32:21;;;;;;;0.98;0.50;;;;;;;27.09;53.23;100134.78;8287763;28;20064;-59
2023/08/05 11:36:26;;;;;;;1.48;0.80;;;;;;;27.85;51.99;100120.72;8292485;28;20030;-59
2023/08/05 11:40:27;;;;;;;3.22;1.73;;;;;;;29.33;50.68;100115.75;8291416;28;20045;-60
2023/08/05 11:44:27;;;;;;;4.80;0.90;;;;;;;29.70;48.52;100105.31;8292638;28;20064;-62
2023/08/05 11:48:28;;;;;;;1.20;0.90;;;;;;;27.69;52.04;100091.91;8286529;28;20045;-61
2023/08/05 11:52:28;;;;;;;1.15;0.80;;;;;;;26.97;52.13;100084.94;8290032;28;20040;-61
2023/08/05 11:56:30;;;;;;;1.13;0.70;;;;;;;26.19;54.01;100078.75;8290533;28;20129;-62
2023/08/05 12:00:32;;;;;;;1.92;0.80;;;;;;;25.85;55.55;100064.00;8288965;28;20281;-62
2023/08/05 12:04:41;;;;;;;1.00;0.90;;;;;;;26.00;56.02;100058.78;8282773;28;20119;-62
2023/08/05 12:08:42;;;;;;;1.42;0.95;;;;;;;25.70;56.41;100060.97;8288475;28;20107;-62
2023/08/05 12:12:45;;;;;;;1.95;1.05;;;;;;;25.22;57.82;100066.09;8289789;28;20044;-61
2023/08/05 12:16:45;;;;;;;1.85;1.20;;;;;;;24.84;59.01;100063.09;8286798;28;20528;-62
2023/08/05 12:20:46;;;;;;;6.30;1.30;;;;;;;24.47;64.59;100061.69;8276280;28;20407;-62
2023/08/05 12:24:47;;;;;;;10.02;1.40;;;;;;;23.14;77.30;100065.06;8277958;28;20042;-61
2023/08/05 12:28:47;;;;;;;3.13;1.48;;;;;;;21.97;79.96;100064.44;8282539;28;20555;-61
2023/08/05 12:32:48;;;;;;;2.03;1.60;;;;;;;21.56;84.52;100053.09;8283881;28;20034;-61
2023/08/05 12:36:48;;;;;;;6.55;1.73;;;;;;;21.66;78.77;100058.09;8279963;28;20034;-61
2023/08/05 12:40:49;;;;;;;1.83;1.70;;;;;;;22.44;82.62;100044.47;8278237;28;20034;-61
2023/08/05 12:44:49;;;;;;;1.50;1.40;;;;;;;23.13;77.00;100058.72;8282544;28;20416;-61
2023/08/05 12:48:50;;;;;;;2.25;1.85;;;;;;;22.57;74.37;100052.63;8276476;28;20073;-61
2023/08/05 12:52:50;;;;;;;4.28;2.00;;;;;;;22.14;75.43;100051.78;8277659;28;20086;-61
2023/08/05 12:56:51;;;;;;;8.85;2.20;;;;;;;21.63;81.40;100059.41;8279991;28;20096;-61
2023/08/05 13:00:51;;;;;;;10.50;3.30;;;;;;;20.46;95.44;100071.78;8277579;28;20042;-61
2023/08/05 13:04:52;;;;;;;10.73;4.20;;;;;;;19.88;100.00;100047.16;8275636;28;21009;-61
2023/08/05 13:08:52;;;;;;;9.32;3.90;;;;;;;19.88;100.00;100038.91;8283214;28;20566;-60
2023/08/05 13:12:52;;;;;;;8.20;5.10;;;;;;;19.98;100.00;100042.91;8283708;28;20038;-60
2023/08/05 13:16:53;;;;;;;9.02;4.18;;;;;;;19.94;100.00;100038.06;8286273;28;20037;-59
2023/08/05 13:20:53;;;;;;;5.80;2.78;;;;;;;20.15;93.19;100024.09;8284504;28;20088;-60
2023/08/05 13:24:56;;;;;;;2.28;1.52;;;;;;;20.33;89.77;100029.78;8287236;28;20042;-60
2023/08/05 13:28:57;;;;;;;2.50;1.77;;;;;;;20.52;85.57;100026.16;8281574;28;20459;-60
2023/08/05 13:32:57;;;;;;;3.58;2.08;;;;;;;20.68;85.53;100025.66;8279980;28;20121;-61
2023/08/05 13:36:58;;;;;;;2.58;1.52;;;;;;;20.90;83.29;100018.78;8285233;28;20065;-61
2023/08/05 13:40:58;;;;;;;2.47;1.40;;;;;;;21.09;81.39;100013.22;8280639;28;20227;-60
2023/08/05 13:44:59;;;;;;;2.13;1.60;;;;;;;21.26;83.88;100011.63;8284137;28;20564;-60
2023/08/05 13:48:59;;;;;;;2.20;1.73;;;;;;;21.34;83.75;100005.84;8282011;28;20415;-60
2023/08/05 13:53:00;;;;;;;1.50;1.20;;;;;;;21.29;77.31;99980.91;8283322;28;20038;-60
2023/08/05 13:57:01;;;;;;;2.22;1.20;;;;;;;21.38;76.27;99967.75;8273272;28;20030;-61
2023/08/05 14:01:03;;;;;;;4.03;1.30;;;;;;;21.41;79.91;99981.06;8282692;28;20045;-61
2023/08/05 14:05:04;;;;;;;1.75;1.20;;;;;;;21.56;77.18;99995.31;8281817;28;20483;-61
2023/08/05 14:09:07;;;;;;;2.92;1.50;;;;;;;21.77;77.30;99983.94;8283154;28;20037;-61
2023/08/05 14:13:08;;;;;;;2.28;1.50;;;;;;;21.99;76.07;99978.88;8283786;28;20042;-61
2023/08/05 14:17:08;;;;;;;2.60;1.35;;;;;;;22.01;74.56;99980.31;8281966;28;20160;-62
2023/08/05 14:21:08;;;;;;;2.17;1.67;;;;;;;22.04;74.81;99966.09;8280378;28;20118;-61
2023/08/05 14:25:09;;;;;;;1.88;1.27;;;;;;;22.02;72.61;99976.50;8282763;28;20060;-61
2023/08/05 14:29:09;;;;;;;3.53;1.40;;;;;;;21.91;70.23;99968.16;8281365;28;20129;-61
2023/08/05 14:33:10;;;;;;;3.33;1.40;;;;;;;21.87;67.86;99967.78;8288976;28;20491;-61
2023/08/05 14:37:11;;;;;;;2.63;1.40;;;;;;;21.94;68.08;99963.03;8284092;28;20057;-61
2023/08/05 14:41:15;;;;;;;3.50;1.30;;;;;;;21.85;67.26;99966.31;8284915;28;20052;-61
2023/08/05 14:45:15;;;;;;;3.25;1.42;;;;;;;21.81;67.34;99960.44;8282076;28;20424;-61
2023/08/05 14:49:16;;;;;;;2.33;1.45;;;;;;;21.83;67.72;99951.94;8286362;28;20041;-61
2023/08/05 14:53:16;;;;;;;1.98;1.30;;;;;;;21.73;66.33;99932.31;8271750;28;20121;-61
2023/08/05 14:57:17;;;;;;;4.15;1.23;;;;;;;21.72;70.97;99923.22;8283910;28;20044;-61
2023/08/05 15:01:17;;;;;;;1.92;1.20;;;;;;;21.47;69.35;99922.38;8281192;28;20359;-61
2023/08/05 15:05:18;;;;;;;2.30;1.27;;;;;;;21.26;75.41;99942.88;8276665;28;20297;-61
2023/08/05 15:09:18;;;;;;;1.25;1.05;;;;;;;20.82;72.13;99944.84;8280698;28;20037;-60
2023/08/05 15:13:19;;;;;;;3.00;1.20;;;;;;;20.53;76.67;99921.56;8282207;28;20037;-60
2023/08/05 15:17:19;;;;;;;1.80;1.20;;;;;;;20.34;74.87;99921.66;8282048;28;20045;-60
2023/08/05 15:21:20;;;;;;;2.72;1.30;;;;;;;20.27;75.35;99927.16;8284101;28;20041;-60
2023/08/05 15:25:20;;;;;;;1.88;1.35;;;;;;;20.30;75.01;99925.88;8283912;28;20046;-60
2023/08/05 15:29:21;;;;;;;4.53;1.65;;;;;;;20.43;74.23;99925.84;8280900;28;20518;-60
2023/08/05 15:33:23;;;;;;;4.43;1.60;;;;;;;20.43;74.84;99925.84;8281944;28;20038;-60
2023/08/05 15:37:23;;;;;;;2.00;1.40;;;;;;;20.39;75.17;99927.31;8280563;28;20065;-60
2023/08/05 15:41:24;;;;;;;2.22;1.80;;;;;;;20.38;77.05;99925.63;8277661;28;20124;-60
2023/08/05 15:45:24;;;;;;;2.97;2.13;;;;;;;20.47;76.28;99918.84;8281742;28;20067;-60
2023/08/05 15:49:27;;;;;;;2.75;1.48;;;;;;;20.50;75.13;99907.41;8282309;28;20052;-60
2023/08/05 15:53:28;;;;;;;3.33;2.30;;;;;;;20.22;74.79;99902.25;8276424;28;20384;-60
2023/08/05 15:57:29;;;;;;;3.53;1.98;;;;;;;20.00;76.07;99889.03;8278785;28;20053;-60
2023/08/05 16:01:30;;;;;;;3.75;1.63;;;;;;;19.75;79.30;99879.78;8285822;28;20578;-60
2023/08/05 16:05:30;;;;;;;2.38;1.63;;;;;;;19.62;77.42;99885.31;8281335;28;20092;-60
2023/08/05 16:09:31;;;;;;;3.45;1.92;;;;;;;19.71;76.47;99884.03;8282798;28;20042;-60
2023/08/05 16:13:31;;;;;;;2.75;1.67;;;;;;;20.11;79.06;99891.06;8282770;28;20042;-61
2023/08/05 16:17:33;;;;;;;3.63;1.52;;;;;;;19.85;83.53;99892.00;8280843;28;20560;-61
2023/08/05 16:21:35;;;;;;;3.53;1.92;;;;;;;19.61;85.33;99878.97;8281584;28;20034;-61
2023/08/05 16:25:35;;;;;;;4.25;1.80;;;;;;;19.61;86.48;99878.16;8281788;28;20073;-61
2023/08/05 16:29:36;;;;;;;2.60;1.85;;;;;;;19.62;82.31;99879.81;8285877;28;20037;-60
2023/08/05 16:33:38;;;;;;;2.75;1.48;;;;;;;19.67;82.79;99874.56;8281485;28;20570;-60
2023/08/05 16:37:38;;;;;;;3.67;1.55;;;;;;;19.64;83.25;99877.72;8285376;28;20509;-60
2023/08/05 16:41:39;;;;;;;3.45;1.70;;;;;;;19.66;81.46;99867.38;8283293;28;20450;-61
2023/08/05 16:45:40;;;;;;;2.33;1.40;;;;;;;19.70;80.45;99865.91;8288818;28;20534;-60
2023/08/05 16:49:40;;;;;;;2.13;1.23;;;;;;;19.87;80.26;99856.13;8285071;28;20046;-60
2023/08/05 16:53:41;;;;;;;1.80;0.73;;;;;;;19.99;74.54;99862.63;8290301;28;20076;-60
2023/08/05 16:57:42;;;;;;;2.80;0.88;;;;;;;20.01;74.33;99853.13;8286547;28;20046;-61
2023/08/05 17:01:44;;;;;;;2.05;0.80;;;;;;;19.98;74.94;99863.69;8286952;28;20037;-60
2023/08/05 17:05:45;;;;;;;2.75;1.05;;;;;;;19.76;76.59;99865.84;8289648;28;20046;-60
2023/08/05 17:09:45;;;;;;;2.78;1.00;;;;;;;19.30;80.13;99863.22;8288440;28;20504;-60
2023/08/05 17:13:46;;;;;;;2.80;1.05;;;;;;;18.63;84.03;99840.63;8286989;28;20038;-60
2023/08/05 17:17:46;;;;;;;2.40;1.10;;;;;;;18.62;86.17;99838.94;8285930;28;20038;-60
2023/08/05 17:21:47;;;;;;;4.07;1.42;;;;;;;18.23;90.56;99833.34;8284152;28;20532;-60
2023/08/05 17:25:47;;;;;;;2.22;1.42;;;;;;;18.03;93.33;99837.94;8289838;28;20064;-59
2023/08/05 17:29:49;;;;;;;2.70;1.63;;;;;;;17.80;96.52;99826.47;8291887;28;20065;-60
2023/08/05 17:33:49;;;;;;;3.47;1.30;;;;;;;17.63;96.90;99825.13;8292296;28;20034;-60
2023/08/05 17:37:50;;;;;;;2.75;1.23;;;;;;;17.68;100.00;99810.84;8291130;28;20065;-60
2023/08/05 17:41:50;;;;;;;2.28;1.50;;;;;;;17.67;98.09;99811.88;8290855;28;20484;-60
2023/08/05 17:45:58;;;;;;;2.88;1.25;;;;;;;17.98;92.03;99796.66;8292102;28;20038;-61
2023/08/05 17:49:59;;;;;;;1.90;1.42;;;;;;;18.45;88.19;99795.75;8292956;28;20038;-60
2023/08/05 17:53:59;;;;;;;2.25;1.45;;;;;;;18.56;89.88;99795.13;8291291;28;20067;-61
2023/08/05 17:58:00;;;;;;;2.05;1.25;;;;;;;18.52;89.74;99786.50;8291242;28;20123;-60
2023/08/05 18:02:00;;;;;;;2.15;1.20;;;;;;;18.69;86.52;99778.69;8291116;28;20041;-61
2023/08/05 18:06:01;;;;;;;3.25;1.20;;;;;;;18.91;82.88;99772.78;8291550;28;20045;-61
2023/08/05 18:10:01;;;;;;;1.52;1.20;;;;;;;19.13;81.19;99771.50;8291260;28;20054;-61
2023/08/05 18:14:02;;;;;;;1.92;1.30;;;;;;;19.27;78.94;99764.97;8282138;28;20069;-61
2023/08/05 18:18:02;;;;;;;1.95;1.15;;;;;;;19.13;80.50;99765.19;8290782;28;20116;-61
2023/08/05 18:22:03;;;;;;;1.83;1.15;;;;;;;19.08;81.24;99754.88;8290640;28;20042;-61
2023/08/05 18:26:04;;;;;;;1.67;1.20;;;;;;;19.02;82.64;99747.50;8286482;28;20068;-61
2023/08/05 18:30:05;;;;;;;1.98;1.15;;;;;;;18.89;83.85;99733.81;8289900;28;20185;-61
2023/08/05 18:34:06;;;;;;;2.75;1.30;;;;;;;18.84;85.63;99744.56;8290720;28;20042;-61
2023/08/05 18:38:06;;;;;;;3.25;1.33;;;;;;;18.87;85.41;99727.72;8290089;28;20038;-61